sensor_id;sensor_type;location;lat;lon;timestamp;temperature;humidity
46730;DHT22;32476;50.002;11.854;2022-09-09T00:05:07;9.90;99.90
46730;DHT22;32476;50.002;11.854;2022-09-09T00:07:52;9.80;99.90
46730;DHT22;32476;50.002;11.854;2022-09-09T00:10:28;9.90;99.90
46730;DHT22;32476;50.002;11.854;2022-09-09T00:13:09;9.90;99.90
46730;DHT22;32476;50.002;11.854;2022-09-09T00:18:58;9.90;99.90
46730;DHT22;32476;50.002;11.854;2022-09-09T00:21:35;9.90;99.90
46730;DHT22;32476;50.002;11.854;2022-09-09T00:24:46;10.00;99.90
46730;DHT22;32476;50.002;11.854;2022-09-09T00:27:23;10.00;99.90
46730;DHT22;32476;50.002;11.854;2022-09-09T00:32:28;10.10;99.90
46730;DHT22;32476;50.002;11.854;2022-09-09T00:35:04;10.10;99.90
46730;DHT22;32476;50.002;11.854;2022-09-09T00:37:46;10.10;99.90
46730;DHT22;32476;50.002;11.854;2022-09-09T00:41:10;10.20;99.90
46730;DHT22;32476;50.002;11.854;2022-09-09T00:43:32;10.20;99.90
46730;DHT22;32476;50.002;11.854;2022-09-09T00:49:30;10.20;99.90
46730;DHT22;32476;50.002;11.854;2022-09-09T00:52:30;10.20;99.90
46730;DHT22;32476;50.002;11.854;2022-09-09T00:55:17;10.20;99.90
46730;DHT22;32476;50.002;11.854;2022-09-09T00:57:52;10.30;99.90
46730;DHT22;32476;50.002;11.854;2022-09-09T01:00:27;10.20;99.90
46730;DHT22;32476;50.002;11.854;2022-09-09T01:03:19;10.20;99.90
46730;DHT22;32476;50.002;11.854;2022-09-09T01:15:18;10.10;99.90
46730;DHT22;32476;50.002;11.854;2022-09-09T01:21:00;10.10;99.90
46730;DHT22;32476;50.002;11.854;2022-09-09T01:24:08;10.10;99.90
46730;DHT22;32476;50.002;11.854;2022-09-09T01:26:49;10.10;99.90
46730;DHT22;32476;50.002;11.854;2022-09-09T01:29:19;10.10;99.90
46730;DHT22;32476;50.002;11.854;2022-09-09T01:32:00;10.10;99.90
46730;DHT22;32476;50.002;11.854;2022-09-09T01:34:31;10.10;99.90
46730;DHT22;32476;50.002;11.854;2022-09-09T01:37:10;10.10;99.90
46730;DHT22;32476;50.002;11.854;2022-09-09T01:39:38;10.10;99.90
46730;DHT22;32476;50.002;11.854;2022-09-09T01:42:09;10.10;99.90
46730;DHT22;32476;50.002;11.854;2022-09-09T01:44:38;10.10;99.90
46730;DHT22;32476;50.002;11.854;2022-09-09T01:47:05;10.10;99.90
46730;DHT22;32476;50.002;11.854;2022-09-09T01:49:33;10.10;99.90
46730;DHT22;32476;50.002;11.854;2022-09-09T01:51:59;10.10;99.90
46730;DHT22;32476;50.002;11.854;2022-09-09T01:54:29;10.10;99.90
46730;DHT22;32476;50.002;11.854;2022-09-09T02:00:05;10.20;99.90
46730;DHT22;32476;50.002;11.854;2022-09-09T02:05:41;10.30;99.90
46730;DHT22;32476;50.002;11.854;2022-09-09T02:08:20;10.30;99.90
46730;DHT22;32476;50.002;11.854;2022-09-09T02:13:37;10.20;99.90
46730;DHT22;32476;50.002;11.854;2022-09-09T02:16:28;10.30;99.90
46730;DHT22;32476;50.002;11.854;2022-09-09T02:21:44;10.40;99.90
46730;DHT22;32476;50.002;11.854;2022-09-09T02:24:14;10.50;99.90
46730;DHT22;32476;50.002;11.854;2022-09-09T02:26:43;10.50;99.90
46730;DHT22;32476;50.002;11.854;2022-09-09T02:29:16;10.50;99.90
46730;DHT22;32476;50.002;11.854;2022-09-09T02:31:45;10.60;99.90
46730;DHT22;32476;50.002;11.854;2022-09-09T02:34:16;10.60;99.90
46730;DHT22;32476;50.002;11.854;2022-09-09T02:36:46;10.60;99.90
46730;DHT22;32476;50.002;11.854;2022-09-09T02:39:14;10.60;99.90
46730;DHT22;32476;50.002;11.854;2022-09-09T02:41:41;10.60;99.90
46730;DHT22;32476;50.002;11.854;2022-09-09T02:44:15;10.50;99.90
46730;DHT22;32476;50.002;11.854;2022-09-09T02:52:38;10.50;99.90
46730;DHT22;32476;50.002;11.854;2022-09-09T02:57:53;10.50;99.90
46730;DHT22;32476;50.002;11.854;2022-09-09T03:00:26;10.50;99.90
46730;DHT22;32476;50.002;11.854;2022-09-09T03:02:54;10.60;99.90
46730;DHT22;32476;50.002;11.854;2022-09-09T03:05:21;10.60;99.90
46730;DHT22;32476;50.002;11.854;2022-09-09T03:07:47;10.70;99.90
46730;DHT22;32476;50.002;11.854;2022-09-09T03:10:14;10.80;99.90
46730;DHT22;32476;50.002;11.854;2022-09-09T03:12:40;10.60;99.90
46730;DHT22;32476;50.002;11.854;2022-09-09T03:15:07;10.60;99.90
46730;DHT22;32476;50.002;11.854;2022-09-09T03:17:35;10.60;99.90
46730;DHT22;32476;50.002;11.854;2022-09-09T03:20:05;10.50;99.90
46730;DHT22;32476;50.002;11.854;2022-09-09T03:22:31;10.50;99.90
46730;DHT22;32476;50.002;11.854;2022-09-09T03:24:59;10.50;99.90
46730;DHT22;32476;50.002;11.854;2022-09-09T03:27:25;10.50;99.90
46730;DHT22;32476;50.002;11.854;2022-09-09T03:29:51;10.60;99.90
46730;DHT22;32476;50.002;11.854;2022-09-09T03:32:19;10.60;99.90
46730;DHT22;32476;50.002;11.854;2022-09-09T03:34:48;10.60;99.90
46730;DHT22;32476;50.002;11.854;2022-09-09T03:37:19;10.60;99.90
46730;DHT22;32476;50.002;11.854;2022-09-09T03:39:45;10.60;99.90
46730;DHT22;32476;50.002;11.854;2022-09-09T03:42:15;10.70;99.90
46730;DHT22;32476;50.002;11.854;2022-09-09T03:44:48;10.70;99.90
46730;DHT22;32476;50.002;11.854;2022-09-09T03:47:21;10.70;99.90
46730;DHT22;32476;50.002;11.854;2022-09-09T03:49:48;10.80;99.90
46730;DHT22;32476;50.002;11.854;2022-09-09T03:52:15;10.80;99.90
46730;DHT22;32476;50.002;11.854;2022-09-09T03:54:42;10.80;99.90
46730;DHT22;32476;50.002;11.854;2022-09-09T03:57:09;10.70;99.90
46730;DHT22;32476;50.002;11.854;2022-09-09T03:59:36;10.70;99.90
46730;DHT22;32476;50.002;11.854;2022-09-09T04:02:02;10.60;99.90
46730;DHT22;32476;50.002;11.854;2022-09-09T04:04:30;10.60;99.90
46730;DHT22;32476;50.002;11.854;2022-09-09T04:06:56;10.60;99.90
46730;DHT22;32476;50.002;11.854;2022-09-09T04:09:22;10.60;99.90
46730;DHT22;32476;50.002;11.854;2022-09-09T04:11:50;10.60;99.90
46730;DHT22;32476;50.002;11.854;2022-09-09T04:14:16;10.60;99.90
46730;DHT22;32476;50.002;11.854;2022-09-09T04:16:42;10.60;99.90
46730;DHT22;32476;50.002;11.854;2022-09-09T04:19:12;10.60;99.90
46730;DHT22;32476;50.002;11.854;2022-09-09T04:21:40;10.60;99.90
46730;DHT22;32476;50.002;11.854;2022-09-09T04:24:07;10.70;99.90
46730;DHT22;32476;50.002;11.854;2022-09-09T04:26:36;10.70;99.90
46730;DHT22;32476;50.002;11.854;2022-09-09T04:29:03;10.70;99.90
46730;DHT22;32476;50.002;11.854;2022-09-09T04:31:30;10.70;99.90
46730;DHT22;32476;50.002;11.854;2022-09-09T04:33:57;10.70;99.90
46730;DHT22;32476;50.002;11.854;2022-09-09T04:36:23;10.70;99.90
46730;DHT22;32476;50.002;11.854;2022-09-09T04:38:49;10.80;99.90
46730;DHT22;32476;50.002;11.854;2022-09-09T04:41:17;10.80;99.90
46730;DHT22;32476;50.002;11.854;2022-09-09T04:43:43;10.90;99.90
46730;DHT22;32476;50.002;11.854;2022-09-09T04:46:09;10.80;99.90
46730;DHT22;32476;50.002;11.854;2022-09-09T04:48:37;10.90;99.90
46730;DHT22;32476;50.002;11.854;2022-09-09T04:51:05;10.90;99.90
46730;DHT22;32476;50.002;11.854;2022-09-09T04:53:35;10.90;99.90
46730;DHT22;32476;50.002;11.854;2022-09-09T04:56:13;10.90;99.90
46730;DHT22;32476;50.002;11.854;2022-09-09T04:58:41;10.90;99.90
46730;DHT22;32476;50.002;11.854;2022-09-09T05:01:29;10.90;99.90
46730;DHT22;32476;50.002;11.854;2022-09-09T05:03:55;10.90;99.90
46730;DHT22;32476;50.002;11.854;2022-09-09T05:06:23;11.00;99.90
46730;DHT22;32476;50.002;11.854;2022-09-09T05:08:49;11.00;99.90
46730;DHT22;32476;50.002;11.854;2022-09-09T05:11:24;11.00;99.90
46730;DHT22;32476;50.002;11.854;2022-09-09T05:13:54;11.10;99.90
46730;DHT22;32476;50.002;11.854;2022-09-09T05:16:21;11.20;99.90
46730;DHT22;32476;50.002;11.854;2022-09-09T05:18:48;11.20;99.90
46730;DHT22;32476;50.002;11.854;2022-09-09T05:21:18;11.30;99.90
46730;DHT22;32476;50.002;11.854;2022-09-09T05:23:46;11.30;99.90
46730;DHT22;32476;50.002;11.854;2022-09-09T05:26:14;11.30;99.90
46730;DHT22;32476;50.002;11.854;2022-09-09T05:28:43;11.40;99.90
46730;DHT22;32476;50.002;11.854;2022-09-09T05:31:10;11.40;99.90
46730;DHT22;32476;50.002;11.854;2022-09-09T05:33:42;11.50;99.90
46730;DHT22;32476;50.002;11.854;2022-09-09T05:36:21;11.50;99.90
46730;DHT22;32476;50.002;11.854;2022-09-09T05:38:48;11.50;99.90
46730;DHT22;32476;50.002;11.854;2022-09-09T05:41:17;11.50;99.90
46730;DHT22;32476;50.002;11.854;2022-09-09T05:43:44;11.60;99.90
46730;DHT22;32476;50.002;11.854;2022-09-09T05:46:13;11.70;99.90
46730;DHT22;32476;50.002;11.854;2022-09-09T05:48:46;11.70;99.90
46730;DHT22;32476;50.002;11.854;2022-09-09T05:51:15;11.70;99.90
46730;DHT22;32476;50.002;11.854;2022-09-09T05:53:43;11.80;99.90
46730;DHT22;32476;50.002;11.854;2022-09-09T05:56:20;11.80;99.90
46730;DHT22;32476;50.002;11.854;2022-09-09T05:58:49;11.90;99.90
46730;DHT22;32476;50.002;11.854;2022-09-09T06:01:18;12.00;99.90
46730;DHT22;32476;50.002;11.854;2022-09-09T06:03:47;12.00;99.90
46730;DHT22;32476;50.002;11.854;2022-09-09T06:06:19;12.10;99.90
46730;DHT22;32476;50.002;11.854;2022-09-09T06:08:50;12.10;99.90
46730;DHT22;32476;50.002;11.854;2022-09-09T06:11:28;12.20;99.90
46730;DHT22;32476;50.002;11.854;2022-09-09T06:14:00;12.30;99.90
46730;DHT22;32476;50.002;11.854;2022-09-09T06:16:27;12.40;99.90
46730;DHT22;32476;50.002;11.854;2022-09-09T06:18:55;12.50;99.90
46730;DHT22;32476;50.002;11.854;2022-09-09T06:21:28;12.50;99.90
46730;DHT22;32476;50.002;11.854;2022-09-09T06:23:58;12.60;99.90
46730;DHT22;32476;50.002;11.854;2022-09-09T06:26:32;12.70;99.90
46730;DHT22;32476;50.002;11.854;2022-09-09T06:29:01;12.70;99.90
46730;DHT22;32476;50.002;11.854;2022-09-09T06:31:32;12.70;99.90
46730;DHT22;32476;50.002;11.854;2022-09-09T06:34:05;12.80;99.90
46730;DHT22;32476;50.002;11.854;2022-09-09T06:36:35;12.90;99.90
46730;DHT22;32476;50.002;11.854;2022-09-09T06:39:02;13.00;99.90
46730;DHT22;32476;50.002;11.854;2022-09-09T06:41:30;13.10;99.90
46730;DHT22;32476;50.002;11.854;2022-09-09T06:43:58;13.10;99.90
46730;DHT22;32476;50.002;11.854;2022-09-09T06:46:29;13.10;99.90
46730;DHT22;32476;50.002;11.854;2022-09-09T06:48:59;13.30;99.90
46730;DHT22;32476;50.002;11.854;2022-09-09T06:51:31;13.40;99.90
46730;DHT22;32476;50.002;11.854;2022-09-09T06:54:01;13.50;99.90
46730;DHT22;32476;50.002;11.854;2022-09-09T06:56:36;13.60;99.90
46730;DHT22;32476;50.002;11.854;2022-09-09T06:59:08;13.60;99.90
46730;DHT22;32476;50.002;11.854;2022-09-09T07:01:39;13.70;99.90
46730;DHT22;32476;50.002;11.854;2022-09-09T07:04:08;14.00;99.90
46730;DHT22;32476;50.002;11.854;2022-09-09T07:06:45;14.20;99.90
46730;DHT22;32476;50.002;11.854;2022-09-09T07:09:14;14.40;99.90
46730;DHT22;32476;50.002;11.854;2022-09-09T07:11:46;14.70;99.90
46730;DHT22;32476;50.002;11.854;2022-09-09T07:14:20;15.20;99.90
46730;DHT22;32476;50.002;11.854;2022-09-09T07:16:46;15.50;99.90
46730;DHT22;32476;50.002;11.854;2022-09-09T07:19:13;15.70;99.90
46730;DHT22;32476;50.002;11.854;2022-09-09T07:21:42;15.90;99.90
46730;DHT22;32476;50.002;11.854;2022-09-09T07:24:08;15.90;99.90
46730;DHT22;32476;50.002;11.854;2022-09-09T07:26:37;15.70;99.90
46730;DHT22;32476;50.002;11.854;2022-09-09T07:29:08;15.90;99.90
46730;DHT22;32476;50.002;11.854;2022-09-09T07:31:36;15.80;99.90
46730;DHT22;32476;50.002;11.854;2022-09-09T07:34:04;15.70;99.90
46730;DHT22;32476;50.002;11.854;2022-09-09T07:36:38;15.50;99.90
46730;DHT22;32476;50.002;11.854;2022-09-09T07:39:07;15.20;99.90
46730;DHT22;32476;50.002;11.854;2022-09-09T07:41:43;15.00;99.90
46730;DHT22;32476;50.002;11.854;2022-09-09T07:44:16;14.90;99.90
46730;DHT22;32476;50.002;11.854;2022-09-09T07:46:45;14.80;99.90
46730;DHT22;32476;50.002;11.854;2022-09-09T07:49:11;14.80;99.90
46730;DHT22;32476;50.002;11.854;2022-09-09T07:51:39;14.70;99.90
46730;DHT22;32476;50.002;11.854;2022-09-09T07:54:10;14.70;99.90
46730;DHT22;32476;50.002;11.854;2022-09-09T07:56:38;14.80;99.90
46730;DHT22;32476;50.002;11.854;2022-09-09T07:59:05;14.70;99.90
46730;DHT22;32476;50.002;11.854;2022-09-09T08:01:44;14.70;99.90
46730;DHT22;32476;50.002;11.854;2022-09-09T08:04:16;14.50;99.90
46730;DHT22;32476;50.002;11.854;2022-09-09T08:06:47;14.50;99.90
46730;DHT22;32476;50.002;11.854;2022-09-09T08:09:14;14.50;99.90
46730;DHT22;32476;50.002;11.854;2022-09-09T08:11:42;14.70;99.90
46730;DHT22;32476;50.002;11.854;2022-09-09T08:14:10;14.70;99.90
46730;DHT22;32476;50.002;11.854;2022-09-09T08:16:39;14.70;99.90
46730;DHT22;32476;50.002;11.854;2022-09-09T08:19:07;14.60;99.90
46730;DHT22;32476;50.002;11.854;2022-09-09T08:21:37;14.60;99.90
46730;DHT22;32476;50.002;11.854;2022-09-09T08:24:06;14.90;99.90
46730;DHT22;32476;50.002;11.854;2022-09-09T08:26:37;15.20;99.90
46730;DHT22;32476;50.002;11.854;2022-09-09T08:29:06;15.40;99.90
46730;DHT22;32476;50.002;11.854;2022-09-09T08:31:38;15.40;99.90
46730;DHT22;32476;50.002;11.854;2022-09-09T08:34:06;15.20;99.90
46730;DHT22;32476;50.002;11.854;2022-09-09T08:36:35;15.60;99.90
46730;DHT22;32476;50.002;11.854;2022-09-09T08:39:08;15.90;99.90
46730;DHT22;32476;50.002;11.854;2022-09-09T08:41:56;16.60;99.90
46730;DHT22;32476;50.002;11.854;2022-09-09T08:50:25;17.60;99.90
46730;DHT22;32476;50.002;11.854;2022-09-09T08:55:38;18.40;99.90
46730;DHT22;32476;50.002;11.854;2022-09-09T08:58:22;18.80;99.90
46730;DHT22;32476;50.002;11.854;2022-09-09T09:01:15;18.90;99.90
46730;DHT22;32476;50.002;11.854;2022-09-09T09:12:49;19.40;99.90
46730;DHT22;32476;50.002;11.854;2022-09-09T09:15:27;19.40;99.90
46730;DHT22;32476;50.002;11.854;2022-09-09T09:17:58;19.10;99.90
46730;DHT22;32476;50.002;11.854;2022-09-09T09:20:51;19.20;99.90
46730;DHT22;32476;50.002;11.854;2022-09-09T09:23:26;19.30;99.90
46730;DHT22;32476;50.002;11.854;2022-09-09T09:26:00;19.40;99.90
46730;DHT22;32476;50.002;11.854;2022-09-09T09:28:31;19.50;99.90
46730;DHT22;32476;50.002;11.854;2022-09-09T09:31:04;19.80;99.90
46730;DHT22;32476;50.002;11.854;2022-09-09T09:33:49;19.40;99.90
46730;DHT22;32476;50.002;11.854;2022-09-09T09:36:16;18.80;99.90
46730;DHT22;32476;50.002;11.854;2022-09-09T09:39:01;18.90;99.90
46730;DHT22;32476;50.002;11.854;2022-09-09T09:41:40;18.60;99.90
46730;DHT22;32476;50.002;11.854;2022-09-09T09:44:39;18.70;99.90
46730;DHT22;32476;50.002;11.854;2022-09-09T09:49:56;17.90;99.90
46730;DHT22;32476;50.002;11.854;2022-09-09T09:52:30;17.90;99.90
46730;DHT22;32476;50.002;11.854;2022-09-09T09:54:58;17.80;99.90
46730;DHT22;32476;50.002;11.854;2022-09-09T09:57:29;17.70;99.90
46730;DHT22;32476;50.002;11.854;2022-09-09T10:00:25;17.80;99.90
46730;DHT22;32476;50.002;11.854;2022-09-09T10:02:54;17.70;99.90
46730;DHT22;32476;50.002;11.854;2022-09-09T10:05:31;17.50;99.90
46730;DHT22;32476;50.002;11.854;2022-09-09T10:08:12;17.30;99.90
46730;DHT22;32476;50.002;11.854;2022-09-09T10:14:04;16.90;99.90
46730;DHT22;32476;50.002;11.854;2022-09-09T10:19:34;16.90;99.90
46730;DHT22;32476;50.002;11.854;2022-09-09T10:22:23;16.80;99.90
46730;DHT22;32476;50.002;11.854;2022-09-09T10:36:58;18.70;99.90
46730;DHT22;32476;50.002;11.854;2022-09-09T10:39:35;19.40;99.90
46730;DHT22;32476;50.002;11.854;2022-09-09T10:42:14;20.20;99.90
46730;DHT22;32476;50.002;11.854;2022-09-09T10:50:43;20.90;99.90
46730;DHT22;32476;50.002;11.854;2022-09-09T10:56:28;21.40;99.90
46730;DHT22;32476;50.002;11.854;2022-09-09T10:59:16;21.40;99.90
46730;DHT22;32476;50.002;11.854;2022-09-09T11:01:58;21.70;99.90
46730;DHT22;32476;50.002;11.854;2022-09-09T11:04:34;21.20;99.90
46730;DHT22;32476;50.002;11.854;2022-09-09T11:07:12;20.90;99.90
46730;DHT22;32476;50.002;11.854;2022-09-09T11:09:50;20.40;99.90
46730;DHT22;32476;50.002;11.854;2022-09-09T11:12:23;20.60;99.90
46730;DHT22;32476;50.002;11.854;2022-09-09T11:17:40;20.50;99.90
46730;DHT22;32476;50.002;11.854;2022-09-09T11:20:13;20.00;99.90
46730;DHT22;32476;50.002;11.854;2022-09-09T11:23:03;20.90;99.90
46730;DHT22;32476;50.002;11.854;2022-09-09T11:25:41;21.90;99.90
46730;DHT22;32476;50.002;11.854;2022-09-09T11:28:28;21.50;99.90
46730;DHT22;32476;50.002;11.854;2022-09-09T11:31:18;21.20;99.90
46730;DHT22;32476;50.002;11.854;2022-09-09T11:34:19;20.60;99.90
46730;DHT22;32476;50.002;11.854;2022-09-09T11:37:17;19.70;99.90
46730;DHT22;32476;50.002;11.854;2022-09-09T11:43:12;19.40;99.90
46730;DHT22;32476;50.002;11.854;2022-09-09T11:45:42;19.20;99.90
46730;DHT22;32476;50.002;11.854;2022-09-09T11:53:51;18.50;99.90
46730;DHT22;32476;50.002;11.854;2022-09-09T11:59:01;16.70;99.90
46730;DHT22;32476;50.002;11.854;2022-09-09T12:01:36;15.80;99.90
46730;DHT22;32476;50.002;11.854;2022-09-09T12:04:14;15.30;99.90
46730;DHT22;32476;50.002;11.854;2022-09-09T12:11:09;14.10;99.90
46730;DHT22;32476;50.002;11.854;2022-09-09T12:13:37;14.10;99.90
46730;DHT22;32476;50.002;11.854;2022-09-09T12:16:03;14.80;99.90
46730;DHT22;32476;50.002;11.854;2022-09-09T12:18:40;15.50;99.90
46730;DHT22;32476;50.002;11.854;2022-09-09T12:21:39;15.70;99.90
46730;DHT22;32476;50.002;11.854;2022-09-09T12:24:13;16.30;99.90
46730;DHT22;32476;50.002;11.854;2022-09-09T12:32:15;17.70;99.90
46730;DHT22;32476;50.002;11.854;2022-09-09T12:34:53;17.60;99.90
46730;DHT22;32476;50.002;11.854;2022-09-09T12:40:25;17.10;99.90
46730;DHT22;32476;50.002;11.854;2022-09-09T12:42:53;16.90;99.90
46730;DHT22;32476;50.002;11.854;2022-09-09T12:45:23;16.40;99.90
46730;DHT22;32476;50.002;11.854;2022-09-09T12:48:04;16.20;99.90
46730;DHT22;32476;50.002;11.854;2022-09-09T12:50:35;15.90;99.90
46730;DHT22;32476;50.002;11.854;2022-09-09T12:56:03;14.80;99.90
46730;DHT22;32476;50.002;11.854;2022-09-09T12:58:38;15.10;99.90
46730;DHT22;32476;50.002;11.854;2022-09-09T13:01:06;15.60;99.90
46730;DHT22;32476;50.002;11.854;2022-09-09T13:03:45;16.10;99.90
46730;DHT22;32476;50.002;11.854;2022-09-09T13:06:22;16.50;99.90
46730;DHT22;32476;50.002;11.854;2022-09-09T13:08:53;16.80;99.90
46730;DHT22;32476;50.002;11.854;2022-09-09T13:11:41;17.40;99.90
46730;DHT22;32476;50.002;11.854;2022-09-09T13:14:17;17.70;99.90
46730;DHT22;32476;50.002;11.854;2022-09-09T13:16:58;18.00;99.90
46730;DHT22;32476;50.002;11.854;2022-09-09T13:19:30;17.80;99.90
46730;DHT22;32476;50.002;11.854;2022-09-09T13:22:19;17.70;99.90
46730;DHT22;32476;50.002;11.854;2022-09-09T13:24:59;17.70;99.90
46730;DHT22;32476;50.002;11.854;2022-09-09T13:27:36;17.40;99.90
46730;DHT22;32476;50.002;11.854;2022-09-09T13:30:24;17.10;99.90
46730;DHT22;32476;50.002;11.854;2022-09-09T13:33:22;16.90;99.90
46730;DHT22;32476;50.002;11.854;2022-09-09T13:36:06;16.90;99.90
46730;DHT22;32476;50.002;11.854;2022-09-09T13:38:55;17.00;99.90
46730;DHT22;32476;50.002;11.854;2022-09-09T13:41:33;17.10;99.90
46730;DHT22;32476;50.002;11.854;2022-09-09T13:44:04;17.10;99.90
46730;DHT22;32476;50.002;11.854;2022-09-09T13:46:38;16.80;99.90
46730;DHT22;32476;50.002;11.854;2022-09-09T13:51:45;16.70;99.90
46730;DHT22;32476;50.002;11.854;2022-09-09T13:54:15;16.70;99.90
46730;DHT22;32476;50.002;11.854;2022-09-09T13:56:44;16.60;99.90
46730;DHT22;32476;50.002;11.854;2022-09-09T13:59:14;16.50;99.90
46730;DHT22;32476;50.002;11.854;2022-09-09T14:01:43;16.40;99.90
46730;DHT22;32476;50.002;11.854;2022-09-09T14:04:10;16.40;99.90
46730;DHT22;32476;50.002;11.854;2022-09-09T14:06:37;16.20;99.90
46730;DHT22;32476;50.002;11.854;2022-09-09T14:09:06;16.10;99.90
46730;DHT22;32476;50.002;11.854;2022-09-09T14:11:32;15.90;99.90
46730;DHT22;32476;50.002;11.854;2022-09-09T14:13:58;15.70;99.90
46730;DHT22;32476;50.002;11.854;2022-09-09T14:16:28;15.50;99.90
46730;DHT22;32476;50.002;11.854;2022-09-09T14:18:54;15.40;99.90
46730;DHT22;32476;50.002;11.854;2022-09-09T14:21:22;15.10;99.90
46730;DHT22;32476;50.002;11.854;2022-09-09T14:23:50;14.90;99.90
46730;DHT22;32476;50.002;11.854;2022-09-09T14:26:19;15.00;99.90
46730;DHT22;32476;50.002;11.854;2022-09-09T14:28:50;15.00;99.90
46730;DHT22;32476;50.002;11.854;2022-09-09T14:31:17;15.00;99.90
46730;DHT22;32476;50.002;11.854;2022-09-09T14:33:44;15.00;99.90
46730;DHT22;32476;50.002;11.854;2022-09-09T14:36:11;14.80;99.90
46730;DHT22;32476;50.002;11.854;2022-09-09T14:38:38;14.50;99.90
46730;DHT22;32476;50.002;11.854;2022-09-09T14:41:13;14.70;99.90
46730;DHT22;32476;50.002;11.854;2022-09-09T14:43:45;15.30;99.90
46730;DHT22;32476;50.002;11.854;2022-09-09T14:46:14;15.60;99.90
46730;DHT22;32476;50.002;11.854;2022-09-09T14:48:42;16.10;99.90
46730;DHT22;32476;50.002;11.854;2022-09-09T14:51:13;16.30;99.90
46730;DHT22;32476;50.002;11.854;2022-09-09T14:53:51;15.90;99.90
46730;DHT22;32476;50.002;11.854;2022-09-09T14:56:22;15.90;99.90
46730;DHT22;32476;50.002;11.854;2022-09-09T14:58:50;15.70;99.90
46730;DHT22;32476;50.002;11.854;2022-09-09T15:01:18;15.70;99.90
46730;DHT22;32476;50.002;11.854;2022-09-09T15:03:52;15.60;99.90
46730;DHT22;32476;50.002;11.854;2022-09-09T15:06:20;15.50;99.90
46730;DHT22;32476;50.002;11.854;2022-09-09T15:08:50;15.40;99.90
46730;DHT22;32476;50.002;11.854;2022-09-09T15:11:18;15.50;99.90
46730;DHT22;32476;50.002;11.854;2022-09-09T15:13:46;15.40;99.90
46730;DHT22;32476;50.002;11.854;2022-09-09T15:16:16;15.30;99.90
46730;DHT22;32476;50.002;11.854;2022-09-09T15:18:44;15.30;99.90
46730;DHT22;32476;50.002;11.854;2022-09-09T15:21:16;15.60;99.90
46730;DHT22;32476;50.002;11.854;2022-09-09T15:23:46;16.00;99.90
46730;DHT22;32476;50.002;11.854;2022-09-09T15:26:13;16.80;99.90
46730;DHT22;32476;50.002;11.854;2022-09-09T15:28:44;17.20;99.90
46730;DHT22;32476;50.002;11.854;2022-09-09T15:31:23;17.40;99.90
46730;DHT22;32476;50.002;11.854;2022-09-09T15:33:56;17.50;99.90
46730;DHT22;32476;50.002;11.854;2022-09-09T15:36:36;17.70;99.90
46730;DHT22;32476;50.002;11.854;2022-09-09T15:39:06;17.40;99.90
46730;DHT22;32476;50.002;11.854;2022-09-09T15:41:35;17.10;99.90
46730;DHT22;32476;50.002;11.854;2022-09-09T15:44:02;16.90;99.90
46730;DHT22;32476;50.002;11.854;2022-09-09T15:46:29;16.90;99.90
46730;DHT22;32476;50.002;11.854;2022-09-09T15:49:13;16.90;99.90
46730;DHT22;32476;50.002;11.854;2022-09-09T15:51:43;16.80;99.90
46730;DHT22;32476;50.002;11.854;2022-09-09T15:54:17;17.00;99.90
46730;DHT22;32476;50.002;11.854;2022-09-09T15:56:45;17.40;99.90
46730;DHT22;32476;50.002;11.854;2022-09-09T15:59:15;17.70;99.90
46730;DHT22;32476;50.002;11.854;2022-09-09T16:01:41;17.80;99.90
46730;DHT22;32476;50.002;11.854;2022-09-09T16:04:08;17.50;99.90
46730;DHT22;32476;50.002;11.854;2022-09-09T16:06:36;17.40;99.90
46730;DHT22;32476;50.002;11.854;2022-09-09T16:09:04;17.20;99.90
46730;DHT22;32476;50.002;11.854;2022-09-09T16:11:34;16.90;99.90
46730;DHT22;32476;50.002;11.854;2022-09-09T16:14:03;16.80;99.90
46730;DHT22;32476;50.002;11.854;2022-09-09T16:16:31;16.80;99.90
46730;DHT22;32476;50.002;11.854;2022-09-09T16:18:59;16.70;99.90
46730;DHT22;32476;50.002;11.854;2022-09-09T16:21:50;16.50;99.90
46730;DHT22;32476;50.002;11.854;2022-09-09T16:24:18;16.40;99.90
46730;DHT22;32476;50.002;11.854;2022-09-09T16:26:52;16.40;99.90
46730;DHT22;32476;50.002;11.854;2022-09-09T16:29:20;16.30;99.90
46730;DHT22;32476;50.002;11.854;2022-09-09T16:31:49;16.30;99.90
46730;DHT22;32476;50.002;11.854;2022-09-09T16:34:16;16.20;99.90
46730;DHT22;32476;50.002;11.854;2022-09-09T16:36:43;16.10;99.90
46730;DHT22;32476;50.002;11.854;2022-09-09T16:39:13;16.00;99.90
46730;DHT22;32476;50.002;11.854;2022-09-09T16:41:42;15.90;99.90
46730;DHT22;32476;50.002;11.854;2022-09-09T16:44:12;15.90;99.90
46730;DHT22;32476;50.002;11.854;2022-09-09T16:46:40;15.80;99.90
46730;DHT22;32476;50.002;11.854;2022-09-09T16:49:10;15.70;99.90
46730;DHT22;32476;50.002;11.854;2022-09-09T16:51:42;15.60;99.90
46730;DHT22;32476;50.002;11.854;2022-09-09T16:54:10;15.50;99.90
46730;DHT22;32476;50.002;11.854;2022-09-09T16:56:38;15.50;99.90
46730;DHT22;32476;50.002;11.854;2022-09-09T16:59:18;15.50;99.90
46730;DHT22;32476;50.002;11.854;2022-09-09T17:01:47;15.50;99.90
46730;DHT22;32476;50.002;11.854;2022-09-09T17:04:22;15.40;99.90
46730;DHT22;32476;50.002;11.854;2022-09-09T17:06:50;15.30;99.90
46730;DHT22;32476;50.002;11.854;2022-09-09T17:09:20;15.20;99.90
46730;DHT22;32476;50.002;11.854;2022-09-09T17:11:48;15.20;99.90
46730;DHT22;32476;50.002;11.854;2022-09-09T17:14:20;15.20;99.90
46730;DHT22;32476;50.002;11.854;2022-09-09T17:16:48;15.30;99.90
46730;DHT22;32476;50.002;11.854;2022-09-09T17:19:14;15.20;99.90
46730;DHT22;32476;50.002;11.854;2022-09-09T17:21:42;15.10;99.90
46730;DHT22;32476;50.002;11.854;2022-09-09T17:24:08;15.00;99.90
46730;DHT22;32476;50.002;11.854;2022-09-09T17:26:34;14.90;99.90
46730;DHT22;32476;50.002;11.854;2022-09-09T17:29:02;14.80;99.90
46730;DHT22;32476;50.002;11.854;2022-09-09T17:31:29;14.80;99.90
46730;DHT22;32476;50.002;11.854;2022-09-09T17:33:56;14.70;99.90
46730;DHT22;32476;50.002;11.854;2022-09-09T17:36:30;14.70;99.90
46730;DHT22;32476;50.002;11.854;2022-09-09T17:38:58;14.50;99.90
46730;DHT22;32476;50.002;11.854;2022-09-09T17:41:29;14.40;99.90
46730;DHT22;32476;50.002;11.854;2022-09-09T17:43:56;14.30;99.90
46730;DHT22;32476;50.002;11.854;2022-09-09T17:46:33;14.20;99.90
46730;DHT22;32476;50.002;11.854;2022-09-09T17:49:07;14.20;99.90
46730;DHT22;32476;50.002;11.854;2022-09-09T17:51:35;14.10;99.90
46730;DHT22;32476;50.002;11.854;2022-09-09T17:54:09;14.00;99.90
46730;DHT22;32476;50.002;11.854;2022-09-09T17:56:40;14.00;99.90